Time;durP1;ratioP1;P1;durP2;ratioP2;P2;SDS_P1;SDS_P2;PMS_P1;PMS_P2;Temp;Humidity;BMP_temperature;BMP_pressure;BME280_temperature;BME280_humidity;BME280_pressure;Samples;Min_cycle;Max_cycle;Signal;HPM_P1;HPM_P2
2021/12/26 10:49:50;;;;;;;19.88;16.33;;;12.30;99.90;;;;;;6098877;23;20360;-94
2021/12/26 10:52:32;;;;;;;15.88;13.27;;;12.70;99.90;;;;;;6097033;23;20041;-87
2021/12/26 10:55:03;;;;;;;18.33;14.35;;;13.00;99.90;;;;;;6100011;23;20053;-88
2021/12/26 10:57:33;;;;;;;16.90;14.68;;;13.60;99.90;;;;;;6124743;23;20010;-87
2021/12/26 11:00:10;;;;;;;15.38;13.10;;;14.10;99.90;;;;;;6126573;23;20032;-87
2021/12/26 11:02:37;;;;;;;16.83;14.15;;;14.20;99.90;;;;;;6126923;23;20077;-86
2021/12/26 11:05:10;;;;;;;16.63;13.95;;;14.40;99.90;;;;;;6126829;23;20017;-88
2021/12/26 11:07:46;;;;;;;16.85;14.13;;;14.40;99.90;;;;;;6099204;23;20006;-85
2021/12/26 11:10:24;;;;;;;20.05;16.20;;;13.90;99.90;;;;;;6126211;23;20058;-86
2021/12/26 11:12:54;;;;;;;18.58;14.63;;;14.00;99.90;;;;;;6126412;23;20081;-87
2021/12/26 11:15:22;;;;;;;19.60;14.45;;;14.00;99.90;;;;;;6100362;23;20009;-88
2021/12/26 11:17:58;;;;;;;17.63;14.77;;;13.80;99.90;;;;;;6129812;23;20112;-95
2021/12/26 11:20:29;;;;;;;18.77;14.55;;;13.80;99.90;;;;;;6109752;23;20012;-94
2021/12/26 11:22:56;;;;;;;15.60;13.90;;;13.70;99.90;;;;;;6131103;23;20038;-94
2021/12/26 11:25:23;;;;;;;15.23;13.73;;;13.60;99.90;;;;;;6125849;23;20002;-94
2021/12/26 11:27:49;;;;;;;19.45;16.10;;;13.90;99.90;;;;;;6126871;23;20002;-94
2021/12/26 11:30:15;;;;;;;16.83;14.07;;;14.20;99.90;;;;;;6101378;23;20005;-93
2021/12/26 11:32:42;;;;;;;15.50;13.32;;;14.20;99.90;;;;;;6101512;23;20451;-86
2021/12/26 11:35:09;;;;;;;16.75;13.63;;;14.00;99.90;;;;;;6126795;23;20085;-91
2021/12/26 11:37:37;;;;;;;17.80;14.40;;;13.90;99.90;;;;;;6126161;23;20061;-95
2021/12/26 11:40:06;;;;;;;17.25;14.00;;;14.00;99.90;;;;;;6126664;23;20002;-87
2021/12/26 11:43:10;;;;;;;17.45;14.18;;;13.80;99.90;;;;;;6126833;23;20428;-94
2021/12/26 11:45:49;;;;;;;18.17;14.57;;;13.90;99.90;;;;;;6101049;23;20058;-94
2021/12/26 11:48:25;;;;;;;15.88;13.93;;;14.00;99.90;;;;;;6127570;23;20006;-92
2021/12/26 11:51:03;;;;;;;16.20;13.52;;;14.20;99.90;;;;;;6100529;23;20025;-94
2021/12/26 11:53:50;;;;;;;16.50;14.05;;;14.00;99.90;;;;;;6127115;23;20005;-89
2021/12/26 11:56:37;;;;;;;16.40;13.70;;;13.70;99.90;;;;;;6126725;23;20308;-89
2021/12/26 11:59:08;;;;;;;16.88;12.93;;;13.80;99.90;;;;;;6127131;23;20014;-89
2021/12/26 12:01:40;;;;;;;14.13;12.70;;;13.90;99.90;;;;;;6126759;23;20081;-92
2021/12/26 12:04:21;;;;;;;14.68;13.13;;;13.70;99.90;;;;;;6100456;23;20433;-89
2021/12/26 12:06:49;;;;;;;15.43;12.50;;;13.70;99.90;;;;;;6100779;23;20104;-87
2021/12/26 12:09:39;;;;;;;14.32;12.80;;;13.60;99.90;;;;;;6124894;23;20034;-89
2021/12/26 12:12:07;;;;;;;15.07;13.48;;;13.40;99.90;;;;;;6125374;23;20006;-84
2021/12/26 12:14:52;;;;;;;16.38;13.23;;;13.20;99.90;;;;;;6099682;23;20006;-85
2021/12/26 12:17:30;;;;;;;14.38;12.93;;;12.80;99.90;;;;;;6124885;23;20096;-84
2021/12/26 12:20:10;;;;;;;18.00;14.60;;;12.50;99.90;;;;;;6124865;23;20340;-85
2021/12/26 12:22:38;;;;;;;17.05;14.18;;;12.30;99.90;;;;;;6125286;23;20008;-87
2021/12/26 12:25:35;;;;;;;14.50;12.85;;;12.20;99.90;;;;;;6125614;23;20333;-85
2021/12/26 12:28:18;;;;;;;16.73;13.90;;;12.00;99.90;;;;;;6126860;23;20002;-86
2021/12/26 12:30:51;;;;;;;16.15;14.00;;;12.00;99.90;;;;;;6125023;23;20081;-86
2021/12/26 12:33:25;;;;;;;17.80;14.45;;;12.00;99.90;;;;;;6124964;23;20006;-86
2021/12/26 12:36:00;;;;;;;18.67;14.90;;;12.10;99.90;;;;;;6125460;23;20081;-87
2021/12/26 12:38:39;;;;;;;16.77;14.68;;;12.30;99.90;;;;;;6125636;23;20045;-86
2021/12/26 12:41:27;;;;;;;15.68;14.00;;;12.40;99.90;;;;;;6124899;23;20002;-86
2021/12/26 12:43:52;;;;;;;16.58;13.95;;;12.60;99.90;;;;;;6098959;23;20006;-86
2021/12/26 12:46:18;;;;;;;16.50;14.70;;;12.80;99.90;;;;;;6125419;23;20452;-86
2021/12/26 12:49:01;;;;;;;16.88;14.45;;;12.80;99.90;;;;;;6098515;23;20005;-86
2021/12/26 12:51:26;;;;;;;16.75;14.95;;;12.80;99.90;;;;;;6124825;23;20018;-88
2021/12/26 12:53:55;;;;;;;15.75;14.05;;;12.90;99.90;;;;;;6125877;23;20014;-89
2021/12/26 12:56:36;;;;;;;17.02;15.00;;;13.10;99.90;;;;;;6124790;23;20025;-88
2021/12/26 12:59:14;;;;;;;19.35;15.98;;;13.20;99.90;;;;;;6125035;23;20018;-88
2021/12/26 13:01:53;;;;;;;18.90;14.60;;;13.10;99.90;;;;;;6124760;23;20073;-88
2021/12/26 13:04:24;;;;;;;19.33;15.20;;;13.10;99.90;;;;;;6098713;23;20017;-89
2021/12/26 13:06:56;;;;;;;20.17;15.75;;;13.00;99.90;;;;;;6099317;23;20392;-89
2021/12/26 13:09:22;;;;;;;18.60;15.38;;;13.10;99.90;;;;;;6124751;23;20010;-89
2021/12/26 13:11:49;;;;;;;18.92;15.65;;;13.30;99.90;;;;;;6125751;23;20061;-89
2021/12/26 13:14:33;;;;;;;18.48;15.35;;;13.40;99.90;;;;;;6125078;23;20002;-88
2021/12/26 13:16:59;;;;;;;18.55;15.18;;;13.30;99.90;;;;;;6124178;23;20005;-88
2021/12/26 13:19:25;;;;;;;17.83;14.77;;;13.20;99.90;;;;;;6098928;23;20018;-88
2021/12/26 13:21:55;;;;;;;16.98;15.05;;;13.00;99.90;;;;;;6098971;23;20014;-89
2021/12/26 13:24:36;;;;;;;20.52;16.77;;;13.00;99.90;;;;;;6124758;23;20495;-88
2021/12/26 13:27:03;;;;;;;18.88;16.20;;;13.00;99.90;;;;;;6116349;23;20065;-89
2021/12/26 13:29:31;;;;;;;18.50;16.48;;;12.80;99.90;;;;;;6125186;23;20032;-88
2021/12/26 13:31:56;;;;;;;20.20;17.02;;;12.80;99.90;;;;;;6124311;23;20009;-88
2021/12/26 13:34:23;;;;;;;20.67;17.42;;;12.70;99.90;;;;;;6125523;23;20006;-89
2021/12/26 13:36:48;;;;;;;17.92;15.98;;;12.70;99.90;;;;;;6124844;23;20011;-88
2021/12/26 13:39:20;;;;;;;18.70;15.75;;;12.50;99.90;;;;;;6098569;23;20018;-88
2021/12/26 13:41:48;;;;;;;17.63;14.82;;;12.30;99.90;;;;;;6124847;23;20002;-89
2021/12/26 13:44:14;;;;;;;15.27;13.68;;;12.20;99.90;;;;;;6124753;23;20006;-88
2021/12/26 13:46:40;;;;;;;16.50;14.20;;;12.10;99.90;;;;;;6098325;23;20010;-89
2021/12/26 13:49:08;;;;;;;15.77;13.40;;;12.20;99.90;;;;;;6124936;23;20430;-88
2021/12/26 13:51:39;;;;;;;18.42;15.60;;;11.90;99.90;;;;;;6124492;23;20025;-89
2021/12/26 13:54:37;;;;;;;16.30;13.52;;;11.90;99.90;;;;;;6124890;23;20014;-88
2021/12/26 13:57:05;;;;;;;14.65;13.02;;;11.90;99.90;;;;;;6125047;23;20002;-88
2021/12/26 13:59:47;;;;;;;16.10;12.55;;;11.90;99.90;;;;;;6098771;23;20330;-88
2021/12/26 14:02:23;;;;;;;15.00;12.77;;;11.90;99.90;;;;;;6124539;23;20002;-88
2021/12/26 14:04:50;;;;;;;15.20;13.02;;;11.90;99.90;;;;;;6125351;23;20010;-88
2021/12/26 14:07:21;;;;;;;12.70;11.35;;;11.90;99.90;;;;;;6124630;23;20076;-89
2021/12/26 14:09:49;;;;;;;13.63;11.63;;;11.90;99.90;;;;;;6098672;23;20333;-87
2021/12/26 14:12:39;;;;;;;13.05;10.88;;;12.30;99.90;;;;;;6098926;23;20005;-88
2021/12/26 14:15:33;;;;;;;14.15;11.10;;;11.80;99.90;;;;;;6124592;23;20013;-88
2021/12/26 14:18:05;;;;;;;12.23;9.85;;;11.70;99.90;;;;;;6125469;23;20034;-88
2021/12/26 14:20:50;;;;;;;9.75;8.60;;;11.70;99.90;;;;;;6124174;23;20034;-88
2021/12/26 14:23:22;;;;;;;10.13;8.98;;;11.70;99.90;;;;;;6098907;23;20006;-88
2021/12/26 14:26:00;;;;;;;10.52;9.43;;;11.70;99.90;;;;;;6124436;23;20002;-88
2021/12/26 14:28:27;;;;;;;11.02;8.57;;;11.80;99.90;;;;;;6125947;23;20469;-88
2021/12/26 14:30:57;;;;;;;12.75;8.35;;;11.60;99.90;;;;;;6126405;23;20317;-88
2021/12/26 14:33:33;;;;;;;10.80;8.27;;;11.70;99.90;;;;;;6126382;23;20010;-88
2021/12/26 14:36:06;;;;;;;10.25;8.25;;;11.50;99.90;;;;;;6126313;23;20396;-88
2021/12/26 14:38:32;;;;;;;8.90;8.00;;;11.50;99.90;;;;;;6126157;23;20014;-88
2021/12/26 14:41:04;;;;;;;12.48;9.60;;;11.70;99.90;;;;;;6127122;23;20006;-88
2021/12/26 14:43:30;;;;;;;10.65;9.23;;;11.70;99.90;;;;;;6126682;23;20093;-88
2021/12/26 14:46:06;;;;;;;10.85;9.15;;;11.80;99.90;;;;;;6099977;23;20444;-88
2021/12/26 14:48:35;;;;;;;10.85;8.63;;;11.80;99.90;;;;;;6126528;23;20033;-88
2021/12/26 14:51:11;;;;;;;9.82;8.32;;;11.70;99.90;;;;;;6126412;23;20033;-88
2021/12/26 14:53:38;;;;;;;11.10;8.55;;;12.00;99.90;;;;;;6126290;23;20433;-88
2021/12/26 14:56:07;;;;;;;10.05;8.20;;;12.10;99.90;;;;;;6126497;23;20013;-88
2021/12/26 14:58:48;;;;;;;10.55;8.48;;;12.20;99.90;;;;;;6125466;23;20014;-88
2021/12/26 15:01:25;;;;;;;10.90;8.77;;;12.30;99.90;;;;;;6126085;23;20025;-89
2021/12/26 15:03:51;;;;;;;11.25;9.30;;;12.40;99.90;;;;;;6100511;23;20005;-89
2021/12/26 15:06:17;;;;;;;11.18;8.82;;;12.70;99.90;;;;;;6126168;23;20085;-95
2021/12/26 15:08:43;;;;;;;11.18;9.02;;;12.60;99.90;;;;;;6100655;23;20014;-87
2021/12/26 15:11:10;;;;;;;10.38;8.63;;;12.80;99.90;;;;;;6121958;23;20009;-88
2021/12/26 15:13:41;;;;;;;12.02;8.52;;;12.80;99.90;;;;;;6097044;23;20088;-87
2021/12/26 15:16:07;;;;;;;9.63;8.63;;;12.80;99.90;;;;;;6098803;23;20057;-87
2021/12/26 15:18:34;;;;;;;9.52;8.45;;;12.60;99.90;;;;;;6125646;23;20014;-87
2021/12/26 15:21:11;;;;;;;12.75;9.95;;;12.60;99.90;;;;;;6126478;23;20009;-87
2021/12/26 15:23:40;;;;;;;10.70;9.43;;;12.60;99.90;;;;;;6126092;23;20006;-86
2021/12/26 15:26:20;;;;;;;11.45;10.05;;;12.40;99.90;;;;;;6124872;23;20076;-86
2021/12/26 15:28:50;;;;;;;11.38;9.52;;;12.20;99.90;;;;;;6124476;23;20081;-86
2021/12/26 15:31:31;;;;;;;11.52;9.52;;;12.20;99.90;;;;;;6125468;23;20002;-86
2021/12/26 15:34:09;;;;;;;14.38;10.65;;;12.10;99.90;;;;;;6125248;23;20026;-87
2021/12/26 15:36:40;;;;;;;12.07;10.05;;;12.00;99.90;;;;;;6100007;23;20332;-87
2021/12/26 15:39:12;;;;;;;12.35;10.45;;;11.80;99.90;;;;;;6123864;23;20449;-86
2021/12/26 15:41:41;;;;;;;13.73;11.32;;;11.70;99.90;;;;;;6099654;23;20048;-88
2021/12/26 15:44:07;;;;;;;13.95;12.35;;;11.70;99.90;;;;;;6120263;23;20010;-87
2021/12/26 15:46:37;;;;;;;14.73;12.70;;;11.60;99.90;;;;;;6099307;23;20467;-87
2021/12/26 15:49:04;;;;;;;15.57;12.07;;;11.50;99.90;;;;;;6124924;23;20002;-87
2021/12/26 15:51:30;;;;;;;12.68;11.38;;;11.50;99.90;;;;;;6125781;23;20048;-87
2021/12/26 15:53:57;;;;;;;14.48;12.55;;;11.40;99.90;;;;;;6125326;23;19998;-87
2021/12/26 15:56:23;;;;;;;14.50;12.25;;;11.30;99.90;;;;;;6125217;23;20010;-88
2021/12/26 15:58:50;;;;;;;14.07;12.40;;;11.40;99.90;;;;;;6099323;23;20024;-88
2021/12/26 16:01:15;;;;;;;14.57;12.95;;;11.40;99.90;;;;;;6125671;23;20345;-88
2021/12/26 16:03:42;;;;;;;14.82;13.25;;;11.40;99.90;;;;;;6125512;23;20002;-87
2021/12/26 16:06:07;;;;;;;16.25;13.40;;;11.40;99.90;;;;;;6126548;23;19998;-88
2021/12/26 16:08:33;;;;;;;14.45;12.95;;;11.30;99.90;;;;;;6125629;23;20017;-87
2021/12/26 16:10:59;;;;;;;15.75;13.40;;;11.30;99.90;;;;;;6124844;23;20429;-88
2021/12/26 16:13:25;;;;;;;15.25;13.60;;;11.30;99.90;;;;;;6125277;23;20013;-87
2021/12/26 16:15:51;;;;;;;17.02;13.88;;;11.30;99.90;;;;;;6125808;23;20002;-87
2021/12/26 16:18:19;;;;;;;15.00;13.38;;;11.40;99.90;;;;;;6125361;23;20092;-87
2021/12/26 16:20:45;;;;;;;16.20;14.00;;;11.30;99.90;;;;;;6124844;23;20437;-85
2021/12/26 16:23:11;;;;;;;16.00;14.05;;;11.20;99.90;;;;;;6125168;23;20378;-85
2021/12/26 16:25:37;;;;;;;17.70;15.18;;;11.20;99.90;;;;;;6125532;23;20006;-86
2021/12/26 16:28:03;;;;;;;22.30;17.65;;;11.10;99.90;;;;;;6125363;23;21095;-86
2021/12/26 16:30:31;;;;;;;21.35;17.23;;;11.10;99.90;;;;;;6125219;23;20016;-86
2021/12/26 16:32:58;;;;;;;21.77;16.15;;;11.20;99.90;;;;;;6099645;23;20001;-87
2021/12/26 16:35:24;;;;;;;18.65;15.05;;;11.20;99.90;;;;;;6125175;23;20006;-87
2021/12/26 16:37:50;;;;;;;18.00;15.63;;;11.50;99.90;;;;;;6125274;23;20014;-88
2021/12/26 16:40:19;;;;;;;21.08;15.82;;;11.20;99.90;;;;;;6099385;23;20126;-88
2021/12/26 16:42:44;;;;;;;19.42;15.40;;;11.00;99.90;;;;;;6125584;23;20006;-88
2021/12/26 16:45:12;;;;;;;19.75;16.33;;;11.00;99.90;;;;;;6125889;23;20341;-87
2021/12/26 16:47:38;;;;;;;19.73;17.23;;;11.00;99.90;;;;;;6126473;23;20045;-90
2021/12/26 16:50:06;;;;;;;19.65;17.17;;;11.00;99.90;;;;;;6124839;23;20021;-86
2021/12/26 16:52:32;;;;;;;24.90;20.30;;;11.00;99.90;;;;;;6125250;23;20025;-87
2021/12/26 16:54:58;;;;;;;24.45;20.50;;;11.20;99.90;;;;;;6125164;23;20002;-87
2021/12/26 16:57:23;;;;;;;38.97;30.35;;;10.90;99.90;;;;;;6099170;23;20337;-86
2021/12/26 16:59:49;;;;;;;24.33;19.77;;;10.80;99.90;;;;;;6124952;23;20010;-86
2021/12/26 17:02:15;;;;;;;25.67;20.52;;;10.80;99.90;;;;;;6125290;23;20005;-86
2021/12/26 17:04:41;;;;;;;26.65;21.25;;;10.90;99.90;;;;;;6124975;23;20081;-87
2021/12/26 17:07:07;;;;;;;22.10;18.90;;;10.90;99.90;;;;;;6125264;23;19998;-85
2021/12/26 17:09:32;;;;;;;21.17;17.38;;;10.90;99.90;;;;;;6124461;23;20035;-87
2021/12/26 17:11:59;;;;;;;21.20;17.52;;;10.80;99.90;;;;;;6125747;23;20006;-87
2021/12/26 17:14:25;;;;;;;21.13;18.38;;;10.90;99.90;;;;;;6124040;23;20006;-87
2021/12/26 17:16:52;;;;;;;24.27;18.98;;;10.90;99.90;;;;;;6122038;23;20006;-87
2021/12/26 17:19:18;;;;;;;25.25;19.20;;;10.80;99.90;;;;;;6125270;23;20037;-88
2021/12/26 17:21:43;;;;;;;30.27;24.33;;;10.80;99.90;;;;;;6098974;23;20005;-87
2021/12/26 17:24:09;;;;;;;26.73;21.17;;;10.80;99.90;;;;;;6123329;23;20014;-89
2021/12/26 17:26:36;;;;;;;25.75;18.90;;;10.80;99.90;;;;;;6099371;23;20026;-89
2021/12/26 17:29:06;;;;;;;21.58;18.60;;;10.80;99.90;;;;;;6124873;23;20012;-88
2021/12/26 17:31:32;;;;;;;20.95;17.30;;;10.60;99.90;;;;;;6124831;23;20360;-88
2021/12/26 17:33:58;;;;;;;20.85;17.95;;;10.60;99.90;;;;;;6125441;23;20382;-88
2021/12/26 17:36:25;;;;;;;25.10;17.98;;;10.50;99.90;;;;;;6098130;23;20013;-87
2021/12/26 17:38:50;;;;;;;23.10;19.08;;;10.30;99.90;;;;;;6124210;23;20093;-87
2021/12/26 17:41:17;;;;;;;22.20;19.33;;;10.10;99.90;;;;;;6125189;23;20415;-87
2021/12/26 17:43:43;;;;;;;25.70;21.35;;;10.10;99.90;;;;;;6124761;23;20034;-86
2021/12/26 17:46:10;;;;;;;24.40;19.70;;;10.00;99.90;;;;;;6124762;23;20006;-87
2021/12/26 17:48:37;;;;;;;23.63;19.65;;;9.90;99.90;;;;;;6124934;23;20009;-87
2021/12/26 17:51:05;;;;;;;25.08;20.27;;;9.70;99.90;;;;;;6124019;23;20021;-87
2021/12/26 17:53:32;;;;;;;22.33;19.42;;;9.60;99.90;;;;;;6124407;23;20013;-87
2021/12/26 17:55:58;;;;;;;25.33;20.42;;;9.60;99.90;;;;;;6124627;23;20032;-87
2021/12/26 17:58:29;;;;;;;27.38;22.25;;;9.60;99.90;;;;;;6098750;23;20364;-87
2021/12/26 18:00:56;;;;;;;22.98;17.48;;;9.60;99.90;;;;;;6125015;23;20006;-87
2021/12/26 18:03:24;;;;;;;22.75;18.45;;;9.70;99.90;;;;;;6126251;23;20511;-87
2021/12/26 18:05:50;;;;;;;21.33;19.02;;;9.80;99.90;;;;;;6126977;23;20010;-86
2021/12/26 18:08:16;;;;;;;22.33;18.90;;;9.80;99.90;;;;;;6125945;23;20006;-87
2021/12/26 18:10:42;;;;;;;21.67;17.52;;;9.80;99.90;;;;;;6126738;23;20084;-87
2021/12/26 18:13:07;;;;;;;21.25;17.85;;;9.90;99.90;;;;;;6126804;23;20073;-87
2021/12/26 18:15:33;;;;;;;22.52;17.35;;;9.90;99.90;;;;;;6126460;23;20520;-87
2021/12/26 18:17:59;;;;;;;21.40;17.05;;;9.80;99.90;;;;;;6126866;23;20093;-87
2021/12/26 18:20:26;;;;;;;19.30;16.35;;;9.70;99.90;;;;;;6126357;23;20081;-87
2021/12/26 18:22:52;;;;;;;18.50;16.50;;;9.70;99.90;;;;;;6126242;23;20006;-87
2021/12/26 18:25:19;;;;;;;19.40;16.63;;;9.60;99.90;;;;;;6126678;23;20072;-87
2021/12/26 18:27:45;;;;;;;22.58;17.58;;;9.50;99.90;;;;;;6126142;23;20010;-87
2021/12/26 18:30:14;;;;;;;25.02;19.40;;;9.50;99.90;;;;;;6126580;23;20118;-87
2021/12/26 18:32:42;;;;;;;23.48;17.88;;;9.40;99.90;;;;;;6127091;23;20009;-87
2021/12/26 18:35:09;;;;;;;25.45;19.58;;;9.20;99.90;;;;;;6100846;23;20770;-87
2021/12/26 18:37:35;;;;;;;26.77;20.10;;;9.10;99.90;;;;;;6125505;23;20038;-88
2021/12/26 18:40:01;;;;;;;25.30;20.65;;;9.30;99.90;;;;;;6126368;23;20038;-88
2021/12/26 18:42:26;;;;;;;26.98;21.27;;;9.00;99.90;;;;;;6126832;23;20069;-88
2021/12/26 18:44:52;;;;;;;28.40;23.08;;;9.10;99.90;;;;;;6126504;23;20002;-88
2021/12/26 18:47:18;;;;;;;29.52;21.52;;;8.90;99.90;;;;;;6100463;23;20013;-87
2021/12/26 18:49:44;;;;;;;27.98;20.70;;;8.90;99.90;;;;;;6100477;23;20022;-88
2021/12/26 18:52:10;;;;;;;31.13;22.70;;;8.80;99.90;;;;;;6100545;23;20009;-90
2021/12/26 18:54:35;;;;;;;31.67;23.27;;;8.90;99.90;;;;;;6101510;23;20016;-90
2021/12/26 18:57:01;;;;;;;26.05;21.20;;;8.80;99.90;;;;;;6100733;23;20012;-89
2021/12/26 18:59:28;;;;;;;26.58;22.08;;;8.80;99.90;;;;;;6100398;23;20448;-88
2021/12/26 19:01:55;;;;;;;27.02;22.02;;;8.80;99.90;;;;;;6126554;23;20006;-90
2021/12/26 19:04:21;;;;;;;27.15;20.98;;;8.80;99.90;;;;;;6125760;23;20010;-89
2021/12/26 19:06:47;;;;;;;27.17;21.27;;;9.00;99.90;;;;;;6125661;23;20485;-89
2021/12/26 19:09:16;;;;;;;28.48;22.02;;;9.00;99.90;;;;;;6126354;23;20009;-88
2021/12/26 19:11:42;;;;;;;27.67;22.65;;;9.10;99.90;;;;;;6100271;23;20013;-89
2021/12/26 19:14:08;;;;;;;27.80;22.65;;;9.00;99.90;;;;;;6126243;23;20006;-88
2021/12/26 19:16:34;;;;;;;30.88;26.80;;;9.00;99.90;;;;;;6126476;23;20013;-88
2021/12/26 19:19:00;;;;;;;29.17;23.52;;;9.20;99.90;;;;;;6125816;23;20010;-88
2021/12/26 19:21:26;;;;;;;30.13;23.50;;;9.30;99.90;;;;;;6099660;23;20084;-89
2021/12/26 19:23:52;;;;;;;31.63;25.13;;;9.50;99.90;;;;;;6125708;23;20084;-88
2021/12/26 19:26:18;;;;;;;29.88;24.02;;;9.50;99.90;;;;;;6125654;23;20449;-88
2021/12/26 19:28:47;;;;;;;32.15;24.38;;;9.50;99.90;;;;;;6126785;23;20056;-93
2021/12/26 19:31:21;;;;;;;34.33;25.77;;;9.40;99.90;;;;;;6126927;23;20014;-90
2021/12/26 19:33:48;;;;;;;30.08;24.52;;;9.40;99.90;;;;;;6126598;23;20045;-91
2021/12/26 19:36:18;;;;;;;31.80;25.63;;;9.50;99.90;;;;;;6100272;23;20012;-94
2021/12/26 19:38:45;;;;;;;31.67;24.25;;;9.50;99.90;;;;;;6126517;23;20487;-92
2021/12/26 19:41:15;;;;;;;30.30;23.63;;;9.40;99.90;;;;;;6126824;23;20049;-90
2021/12/26 19:43:51;;;;;;;29.33;25.00;;;9.30;99.90;;;;;;6127208;23;20345;-89
2021/12/26 19:46:18;;;;;;;33.00;27.42;;;9.20;99.90;;;;;;6105672;23;20009;-90
2021/12/26 19:48:45;;;;;;;36.22;28.42;;;9.50;99.90;;;;;;6104027;23;20020;-90
2021/12/26 19:51:11;;;;;;;39.83;28.88;;;8.90;99.90;;;;;;6126008;23;20022;-90
2021/12/26 19:53:37;;;;;;;35.05;27.52;;;9.10;99.90;;;;;;6101310;23;20014;-91
2021/12/26 19:56:04;;;;;;;35.63;28.10;;;8.80;99.90;;;;;;6100679;23;20464;-91
2021/12/26 19:58:29;;;;;;;36.65;27.98;;;8.70;99.90;;;;;;6101904;23;20082;-91
2021/12/26 20:00:56;;;;;;;38.22;31.88;;;8.60;99.90;;;;;;6100629;23;20318;-93
2021/12/26 20:03:23;;;;;;;36.08;29.48;;;9.00;99.90;;;;;;6100027;23;20006;-91
2021/12/26 20:05:50;;;;;;;37.75;32.80;;;8.50;99.90;;;;;;6124949;23;20444;-86
2021/12/26 20:08:16;;;;;;;37.88;31.58;;;8.40;99.90;;;;;;6125725;23;20006;-87
2021/12/26 20:10:47;;;;;;;34.00;29.30;;;8.40;99.90;;;;;;6125479;23;20049;-86
2021/12/26 20:13:13;;;;;;;30.85;26.20;;;8.40;99.90;;;;;;6127128;23;20013;-92
2021/12/26 20:15:38;;;;;;;28.05;22.10;;;8.30;99.90;;;;;;6126167;23;20006;-91
2021/12/26 20:18:04;;;;;;;26.67;23.63;;;8.40;99.90;;;;;;6099687;23;20010;-92
2021/12/26 20:20:30;;;;;;;28.70;22.35;;;8.40;99.90;;;;;;6100717;23;20013;-92
2021/12/26 20:22:55;;;;;;;25.27;21.30;;;8.30;99.90;;;;;;6127167;23;20002;-86
2021/12/26 20:25:21;;;;;;;23.17;19.05;;;8.40;99.90;;;;;;6128028;23;20001;-95
2021/12/26 20:27:49;;;;;;;25.35;20.65;;;8.40;99.90;;;;;;6101079;23;20006;-93
2021/12/26 20:30:17;;;;;;;26.90;20.98;;;8.40;99.90;;;;;;6126293;23;20014;-94
2021/12/26 20:32:42;;;;;;;24.42;19.25;;;8.40;99.90;;;;;;6099179;23;20136;-86
2021/12/26 20:35:08;;;;;;;27.30;21.95;;;8.30;99.90;;;;;;6126509;23;20034;-92
2021/12/26 20:37:34;;;;;;;28.08;22.65;;;8.40;99.90;;;;;;6100647;23;20029;-92
2021/12/26 20:40:00;;;;;;;30.00;23.35;;;8.30;99.90;;;;;;6125762;23;20444;-89
2021/12/26 20:42:25;;;;;;;32.28;25.30;;;8.20;99.90;;;;;;6126477;23;20026;-91
2021/12/26 20:44:51;;;;;;;32.38;25.52;;;8.30;99.90;;;;;;6126475;23;20049;-91
2021/12/26 20:47:17;;;;;;;32.95;25.50;;;8.30;99.90;;;;;;6125679;23;20002;-87
2021/12/26 20:49:42;;;;;;;33.38;26.88;;;8.50;99.90;;;;;;6125662;23;20017;-94
2021/12/26 20:52:08;;;;;;;28.20;23.40;;;8.40;99.90;;;;;;6126707;23;20013;-95
2021/12/26 20:54:35;;;;;;;30.95;24.55;;;8.70;99.90;;;;;;6101695;23;20009;-94
2021/12/26 20:57:02;;;;;;;27.20;22.58;;;8.40;99.90;;;;;;6101754;23;20037;-94
2021/12/26 20:59:28;;;;;;;25.33;22.15;;;8.50;99.90;;;;;;6100619;23;20018;-92
2021/12/26 21:01:58;;;;;;;29.30;23.38;;;8.40;99.90;;;;;;6125838;23;20002;-92
2021/12/26 21:04:25;;;;;;;32.25;25.30;;;8.40;99.90;;;;;;6126519;23;20006;-91
2021/12/26 21:06:51;;;;;;;31.42;24.08;;;8.40;99.90;;;;;;6100081;23;20025;-91
2021/12/26 21:09:17;;;;;;;34.47;24.92;;;8.70;99.90;;;;;;6100570;23;20009;-92
2021/12/26 21:11:42;;;;;;;28.05;22.65;;;8.50;99.90;;;;;;6125833;23;20009;-91
2021/12/26 21:14:08;;;;;;;26.08;20.58;;;8.60;99.90;;;;;;6100312;23;20048;-91
2021/12/26 21:16:34;;;;;;;24.65;20.15;;;8.60;99.90;;;;;;6099656;23;20010;-91
2021/12/26 21:18:59;;;;;;;26.73;20.23;;;8.60;99.90;;;;;;6099895;23;20069;-91
2021/12/26 21:21:25;;;;;;;22.73;18.92;;;8.60;99.90;;;;;;6125806;23;20053;-90
2021/12/26 21:23:50;;;;;;;25.42;19.10;;;8.50;99.90;;;;;;6100202;23;20048;-92
2021/12/26 21:26:16;;;;;;;24.92;19.65;;;8.40;99.90;;;;;;6100528;23;20029;-93
2021/12/26 21:28:42;;;;;;;22.52;17.33;;;8.20;99.90;;;;;;6099624;23;20089;-90
2021/12/26 21:31:08;;;;;;;21.13;17.63;;;8.40;99.90;;;;;;6125590;23;20009;-90
2021/12/26 21:33:33;;;;;;;20.85;17.63;;;8.30;99.90;;;;;;6125857;23;20025;-91
2021/12/26 21:35:59;;;;;;;22.38;18.20;;;8.20;99.90;;;;;;6126196;23;20065;-92
2021/12/26 21:38:25;;;;;;;23.02;18.33;;;8.00;99.90;;;;;;6125586;23;20072;-93
2021/12/26 21:40:51;;;;;;;24.90;18.80;;;7.90;99.90;;;;;;6126214;23;20006;-93
2021/12/26 21:43:19;;;;;;;23.85;19.15;;;7.70;99.90;;;;;;6126195;23;20006;-92
2021/12/26 21:45:51;;;;;;;24.20;18.65;;;7.70;99.90;;;;;;6125478;23;20009;-93
2021/12/26 21:48:16;;;;;;;21.85;17.13;;;7.70;99.90;;;;;;6099928;23;20449;-93
2021/12/26 21:50:42;;;;;;;25.02;18.10;;;7.80;99.90;;;;;;6126372;23;20105;-93
2021/12/26 21:53:08;;;;;;;27.42;19.75;;;7.70;99.90;;;;;;6125525;23;20060;-93
2021/12/26 21:55:34;;;;;;;24.30;19.67;;;7.80;99.90;;;;;;6125672;23;19998;-93
2021/12/26 21:58:00;;;;;;;26.33;19.05;;;7.80;99.90;;;;;;6126123;23;20006;-92
2021/12/26 22:00:35;;;;;;;26.17;19.77;;;7.70;99.90;;;;;;6125330;23;20076;-93
2021/12/26 22:03:02;;;;;;;24.50;20.35;;;7.70;99.90;;;;;;6125655;23;20002;-92
2021/12/26 22:05:27;;;;;;;27.38;21.30;;;7.80;99.90;;;;;;6126130;23;20006;-91
2021/12/26 22:07:53;;;;;;;25.75;20.63;;;7.50;99.90;;;;;;6100209;23;20013;-92
2021/12/26 22:10:20;;;;;;;25.55;20.27;;;7.80;99.90;;;;;;6099842;23;20009;-92
2021/12/26 22:12:45;;;;;;;25.88;19.08;;;7.50;99.90;;;;;;6125567;23;20006;-92
2021/12/26 22:15:12;;;;;;;21.48;17.27;;;7.40;99.90;;;;;;6125129;23;20340;-94
2021/12/26 22:17:37;;;;;;;21.13;16.80;;;7.40;99.90;;;;;;6126646;23;20010;-94
2021/12/26 22:20:07;;;;;;;18.95;16.13;;;7.40;99.90;;;;;;6100010;23;20105;-94
2021/12/26 22:22:33;;;;;;;22.45;18.17;;;7.40;99.90;;;;;;6125968;23;20061;-92
2021/12/26 22:25:00;;;;;;;21.45;17.30;;;7.50;99.90;;;;;;6100100;23;20385;-93
2021/12/26 22:27:26;;;;;;;21.67;17.38;;;7.50;99.90;;;;;;6125895;23;20006;-93
2021/12/26 22:29:52;;;;;;;20.80;17.20;;;7.70;99.90;;;;;;6099422;23;20088;-93
2021/12/26 22:32:17;;;;;;;19.23;16.73;;;7.50;99.90;;;;;;6099658;23;20013;-86
2021/12/26 22:34:44;;;;;;;21.75;17.45;;;7.60;99.90;;;;;;6124140;23;20014;-86
2021/12/26 22:37:10;;;;;;;19.98;16.52;;;7.50;99.90;;;;;;6124528;23;20413;-87
2021/12/26 22:39:35;;;;;;;20.20;16.70;;;7.50;99.90;;;;;;6124404;23;20024;-87
2021/12/26 22:42:02;;;;;;;19.77;16.20;;;7.60;99.90;;;;;;6124808;23;20006;-86
2021/12/26 22:44:31;;;;;;;20.08;16.17;;;7.50;99.90;;;;;;6098031;23;20429;-86
2021/12/26 22:46:57;;;;;;;19.45;15.98;;;7.80;99.90;;;;;;6124659;23;20006;-86
2021/12/26 22:49:23;;;;;;;20.58;16.35;;;7.50;99.90;;;;;;6125428;23;20104;-87
2021/12/26 22:51:49;;;;;;;21.20;16.00;;;7.40;99.90;;;;;;6126683;23;20018;-86
2021/12/26 22:54:15;;;;;;;17.80;15.35;;;7.40;99.90;;;;;;6126565;23;20009;-86
2021/12/26 22:56:40;;;;;;;18.05;15.20;;;7.40;99.90;;;;;;6125582;23;20006;-86
2021/12/26 22:59:06;;;;;;;18.08;14.90;;;7.40;99.90;;;;;;6099634;23;20503;-86
2021/12/26 23:01:33;;;;;;;17.50;13.80;;;7.50;99.90;;;;;;6125987;23;20025;-86
2021/12/26 23:03:59;;;;;;;18.92;15.15;;;7.50;99.90;;;;;;6126147;23;20464;-86
2021/12/26 23:06:25;;;;;;;16.42;13.90;;;7.50;99.90;;;;;;6126231;23;20002;-86
2021/12/26 23:08:51;;;;;;;17.38;14.05;;;7.30;99.90;;;;;;6126410;23;20017;-86
2021/12/26 23:11:16;;;;;;;18.15;15.00;;;7.20;99.90;;;;;;6125996;23;19998;-86
2021/12/26 23:13:42;;;;;;;17.67;14.18;;;7.20;99.90;;;;;;6125982;23;20002;-86
2021/12/26 23:16:08;;;;;;;17.38;14.52;;;7.60;99.90;;;;;;6100196;23;20006;-86
2021/12/26 23:18:34;;;;;;;21.60;17.08;;;7.20;99.90;;;;;;6099537;23;20053;-86
2021/12/26 23:21:04;;;;;;;21.48;17.23;;;7.00;99.90;;;;;;6126339;23;20035;-86
2021/12/26 23:23:30;;;;;;;17.77;14.38;;;7.30;99.90;;;;;;6126449;23;20009;-86
2021/12/26 23:25:56;;;;;;;19.95;15.18;;;6.70;99.90;;;;;;6125026;23;20133;-86
2021/12/26 23:28:23;;;;;;;18.88;15.18;;;6.70;99.90;;;;;;6125859;23;20009;-86
2021/12/26 23:30:49;;;;;;;21.15;16.63;;;6.60;99.90;;;;;;6126287;23;19998;-86